Time;durP1;ratioP1;P1;durP2;ratioP2;P2;SDS_P1;SDS_P2;PMS_P1;PMS_P2;Temp;Humidity;BMP_temperature;BMP_pressure;BME280_temperature;BME280_humidity;BME280_pressure;Samples;Min_cycle;Max_cycle;Signal;HPM_P1;HPM_P2
2023/07/08 00:01:13;;;;;;;6.13;3.20;;;;;;;23.17;39.73;101613.50;4989506;28;124160;-72
2023/07/08 00:03:40;;;;;;;7.22;2.83;;;;;;;23.15;39.72;101605.56;5000896;28;123809;-72
2023/07/08 00:06:15;;;;;;;4.45;2.92;;;;;;;23.12;39.86;101601.25;5017923;28;114600;-71
2023/07/08 00:08:43;;;;;;;4.57;2.80;;;;;;;23.10;39.70;101608.66;4997187;28;113943;-72
2023/07/08 00:11:12;;;;;;;5.93;2.50;;;;;;;23.07;39.78;101594.53;5023521;28;124120;-71
2023/07/08 00:13:40;;;;;;;8.90;2.80;;;;;;;23.06;39.88;101591.00;4993384;28;122790;-72
2023/07/08 00:16:16;;;;;;;4.78;2.60;;;;;;;23.02;40.03;101589.50;5002150;28;114262;-71
2023/07/08 00:18:46;;;;;;;4.10;2.47;;;;;;;23.00;39.97;101586.09;4976980;28;112933;-71
2023/07/08 00:21:16;;;;;;;7.32;2.72;;;;;;;22.98;40.17;101593.47;5021273;28;124084;-71
2023/07/08 00:23:51;;;;;;;4.95;2.92;;;;;;;22.95;40.11;101593.72;5011236;28;124076;-71
2023/07/08 00:26:28;;;;;;;8.77;2.95;;;;;;;22.92;40.10;101583.16;4982625;28;113284;-69
2023/07/08 00:28:56;;;;;;;5.70;2.60;;;;;;;22.87;40.06;101585.44;5010001;28;113168;-69
2023/07/08 00:31:25;;;;;;;3.28;2.58;;;;;;;22.85;40.13;101593.66;5020961;28;124317;-69
2023/07/08 00:33:55;;;;;;;4.38;3.00;;;;;;;22.84;40.23;101585.69;5008358;28;124475;-69
2023/07/08 00:36:26;;;;;;;7.63;3.30;;;;;;;22.80;40.28;101576.97;5010457;28;115834;-69
2023/07/08 00:38:54;;;;;;;5.43;2.95;;;;;;;22.78;40.29;101575.41;4999066;28;114025;-70
2023/07/08 00:41:36;;;;;;;4.53;2.90;;;;;;;22.74;40.40;101581.06;5012889;28;124137;-69
2023/07/08 00:44:04;;;;;;;4.13;2.83;;;;;;;22.71;40.36;101569.66;5007969;28;124649;-69
2023/07/08 00:46:41;;;;;;;7.05;2.97;;;;;;;22.67;40.46;101579.88;5010461;28;114680;-69
2023/07/08 00:49:43;;;;;;;6.97;3.03;;;;;;;22.63;40.54;101578.41;5014885;28;113985;-70
2023/07/08 00:52:29;;;;;;;11.10;2.88;;;;;;;22.58;40.49;101579.78;4999806;28;123101;-70
2023/07/08 00:55:02;;;;;;;4.13;2.70;;;;;;;22.54;40.65;101584.59;4999754;28;123949;-69
2023/07/08 00:57:33;;;;;;;6.50;2.78;;;;;;;22.50;40.73;101588.53;4990151;28;113107;-69
2023/07/08 01:00:16;;;;;;;5.13;3.00;;;;;;;22.47;40.68;101588.78;4989029;28;112968;-68
2023/07/08 01:02:50;;;;;;;4.57;3.10;;;;;;;22.44;40.80;101583.66;4997205;28;123129;-68
2023/07/08 01:05:22;;;;;;;5.65;2.55;;;;;;;22.42;40.93;101578.38;5009201;28;123822;-69
2023/07/08 01:07:56;;;;;;;4.10;2.97;;;;;;;22.40;41.02;101576.81;4996774;28;113424;-69
2023/07/08 01:10:31;;;;;;;7.45;2.92;;;;;;;22.38;41.14;101573.34;5006594;28;112851;-68
2023/07/08 01:13:05;;;;;;;4.35;2.85;;;;;;;22.35;41.17;101574.47;5029242;28;124583;-68
2023/07/08 01:15:38;;;;;;;5.13;3.05;;;;;;;22.32;41.31;101566.63;4998113;28;123895;-68
2023/07/08 01:18:09;;;;;;;4.93;3.08;;;;;;;22.29;41.45;101572.31;4996855;28;113713;-68
2023/07/08 01:20:37;;;;;;;3.25;2.53;;;;;;;22.24;41.38;101564.53;5028004;28;113499;-68
2023/07/08 01:23:05;;;;;;;5.05;2.88;;;;;;;22.21;41.55;101572.03;4996723;28;123005;-68
2023/07/08 01:25:33;;;;;;;6.07;3.25;;;;;;;22.16;41.76;101557.09;4982561;28;124245;-68
2023/07/08 01:28:01;;;;;;;5.47;2.70;;;;;;;22.12;41.92;101563.72;5011653;28;115261;-68
2023/07/08 01:30:29;;;;;;;3.58;2.65;;;;;;;22.09;42.06;101558.56;4977813;28;114515;-68
2023/07/08 01:33:04;;;;;;;3.58;3.10;;;;;;;22.07;42.17;101570.47;5006091;28;124586;-68
2023/07/08 01:35:31;;;;;;;4.70;2.95;;;;;;;22.05;41.99;101559.81;4995516;28;122661;-70
2023/07/08 01:38:02;;;;;;;7.30;3.17;;;;;;;22.07;42.22;101565.09;5009081;28;114507;-68
2023/07/08 01:40:34;;;;;;;5.22;2.60;;;;;;;22.06;42.31;101568.78;4987355;28;113582;-68
2023/07/08 01:43:03;;;;;;;3.95;2.70;;;;;;;22.07;42.19;101565.09;4995354;28;123225;-70
2023/07/08 01:45:40;;;;;;;5.47;2.67;;;;;;;22.07;42.44;101554.28;5000535;28;124224;-69
2023/07/08 01:48:18;;;;;;;4.53;2.75;;;;;;;22.09;42.16;101563.13;5021357;28;114227;-70
2023/07/08 01:50:54;;;;;;;4.50;2.60;;;;;;;22.09;42.37;101553.16;4976438;28;113633;-68
2023/07/08 01:53:29;;;;;;;4.47;2.78;;;;;;;22.11;42.41;101555.75;4987821;28;123946;-68
2023/07/08 01:55:59;;;;;;;5.82;2.58;;;;;;;22.13;42.25;101542.97;4991159;28;123648;-69
2023/07/08 01:58:27;;;;;;;5.90;2.50;;;;;;;22.15;42.39;101538.31;4995597;28;113393;-68
2023/07/08 02:00:55;;;;;;;5.38;2.70;;;;;;;22.15;42.46;101535.63;4967462;28;113239;-68
2023/07/08 02:03:23;;;;;;;3.90;2.60;;;;;;;22.15;42.51;101532.91;4996760;28;123286;-68
2023/07/08 02:05:50;;;;;;;5.18;2.85;;;;;;;22.15;42.50;101525.69;4995914;28;122899;-68
2023/07/08 02:08:19;;;;;;;5.38;2.80;;;;;;;22.15;42.67;101524.81;4980333;28;113377;-68
2023/07/08 02:10:50;;;;;;;4.03;2.58;;;;;;;22.15;42.72;101530.22;5013317;28;114306;-68
2023/07/08 02:13:19;;;;;;;4.32;2.63;;;;;;;22.13;42.46;101521.41;5006730;28;123022;-68
2023/07/08 02:15:48;;;;;;;3.90;2.42;;;;;;;22.14;42.75;101528.53;4983093;28;123477;-68
2023/07/08 02:18:18;;;;;;;3.88;2.60;;;;;;;22.13;42.77;101529.50;5011876;28;115234;-68
2023/07/08 02:20:47;;;;;;;3.88;2.90;;;;;;;22.12;42.85;101531.34;5021408;28;114906;-68
2023/07/08 02:23:15;;;;;;;5.85;2.90;;;;;;;22.13;42.88;101526.78;5001578;28;122931;-68
2023/07/08 02:25:52;;;;;;;4.78;2.72;;;;;;;22.11;42.72;101528.75;5020947;28;124527;-68
2023/07/08 02:28:19;;;;;;;7.43;2.97;;;;;;;22.08;42.93;101534.44;4991672;28;113136;-69
2023/07/08 02:30:46;;;;;;;4.15;2.50;;;;;;;22.06;42.99;101525.63;4993050;28;113864;-69
2023/07/08 02:33:17;;;;;;;4.72;3.10;;;;;;;22.04;42.85;101527.56;4988893;28;122927;-69
2023/07/08 02:35:45;;;;;;;4.72;2.95;;;;;;;22.00;42.95;101520.72;5002435;28;124347;-69
2023/07/08 02:38:12;;;;;;;5.07;3.30;;;;;;;21.95;42.86;101513.84;4992180;28;114570;-69
2023/07/08 02:40:41;;;;;;;4.43;3.25;;;;;;;21.88;42.98;101512.66;4987724;28;113983;-69
2023/07/08 02:43:09;;;;;;;4.00;2.97;;;;;;;21.83;43.14;101519.41;5001101;28;123884;-69
2023/07/08 02:45:38;;;;;;;4.47;3.03;;;;;;;21.76;43.13;101505.59;5006536;28;124261;-69
2023/07/08 02:48:05;;;;;;;3.63;2.80;;;;;;;21.72;43.19;101509.50;5003971;28;114459;-69
2023/07/08 02:50:32;;;;;;;5.00;3.08;;;;;;;21.70;43.27;101508.75;5023291;28;114026;-69
2023/07/08 02:52:59;;;;;;;3.85;3.10;;;;;;;21.68;43.26;101506.22;5024390;28;124068;-69
2023/07/08 02:55:26;;;;;;;11.65;3.50;;;;;;;21.67;43.28;101506.31;5015636;28;124271;-69
2023/07/08 02:57:54;;;;;;;5.85;2.88;;;;;;;21.65;43.36;101500.22;5012290;28;114518;-69
2023/07/08 03:00:21;;;;;;;4.97;2.90;;;;;;;21.63;43.34;101507.56;5011619;28;113975;-69
2023/07/08 03:02:48;;;;;;;5.00;3.10;;;;;;;21.61;43.32;101520.31;5010161;28;124774;-69
2023/07/08 03:05:17;;;;;;;7.68;3.17;;;;;;;21.57;43.72;101514.31;5004996;28;124403;-69
2023/07/08 03:07:44;;;;;;;5.47;3.63;;;;;;;21.55;43.59;101521.66;5009355;28;115059;-69
2023/07/08 03:10:12;;;;;;;5.82;3.20;;;;;;;21.50;43.72;101508.53;5008132;28;115374;-69
2023/07/08 03:12:40;;;;;;;4.68;3.33;;;;;;;21.45;43.76;101510.75;5009306;28;125131;-69
2023/07/08 03:15:07;;;;;;;4.40;2.95;;;;;;;21.40;43.70;101512.94;4992883;28;123768;-69
2023/07/08 03:17:34;;;;;;;5.60;2.92;;;;;;;21.35;43.73;101515.16;5009186;28;114972;-69
2023/07/08 03:20:04;;;;;;;5.05;3.40;;;;;;;21.31;43.80;101510.97;5009754;28;114390;-69
2023/07/08 03:22:31;;;;;;;6.10;3.42;;;;;;;21.29;43.93;101510.25;5008878;28;124485;-68
2023/07/08 03:24:59;;;;;;;6.10;3.65;;;;;;;21.28;43.88;101513.91;5007729;28;124228;-69
2023/07/08 03:27:26;;;;;;;4.63;3.45;;;;;;;21.26;44.01;101513.19;5009538;28;114849;-69
2023/07/08 03:29:53;;;;;;;5.43;3.75;;;;;;;21.23;44.02;101517.00;4993509;28;113237;-69
2023/07/08 03:32:21;;;;;;;5.80;3.17;;;;;;;21.20;44.10;101518.06;4977006;28;124048;-69
2023/07/08 03:34:49;;;;;;;5.18;3.13;;;;;;;21.19;44.03;101516.38;5008889;28;124193;-68
2023/07/08 03:37:16;;;;;;;5.35;3.13;;;;;;;21.18;44.23;101519.19;4993090;28;113400;-69
2023/07/08 03:39:43;;;;;;;5.60;3.20;;;;;;;21.17;44.10;101528.22;4996434;28;113805;-69
2023/07/08 03:42:13;;;;;;;7.57;3.10;;;;;;;21.16;44.42;101524.69;4994056;28;123169;-69
2023/07/08 03:44:40;;;;;;;4.18;2.70;;;;;;;21.15;44.29;101524.81;4992758;28;122372;-69
2023/07/08 03:47:08;;;;;;;5.07;2.70;;;;;;;21.13;44.34;101522.22;4994294;28;113512;-69
2023/07/08 03:49:36;;;;;;;4.78;2.60;;;;;;;21.11;44.56;101524.19;4996424;28;113368;-69
2023/07/08 03:52:03;;;;;;;4.78;2.95;;;;;;;21.10;44.55;101522.47;5002363;28;123944;-69
2023/07/08 03:54:30;;;;;;;5.78;3.05;;;;;;;21.08;44.59;101529.84;4990413;28;123997;-69
2023/07/08 03:57:02;;;;;;;3.97;2.72;;;;;;;21.07;44.67;101533.50;4974167;28;114506;-69
2023/07/08 03:59:30;;;;;;;4.05;2.50;;;;;;;21.08;44.73;101527.13;4978728;28;114129;-68
2023/07/08 04:01:59;;;;;;;4.88;2.95;;;;;;;21.08;44.71;101535.22;5005450;28;123707;-69
2023/07/08 04:04:29;;;;;;;5.13;2.90;;;;;;;21.09;44.86;101536.91;4995254;28;122695;-69
2023/07/08 04:06:57;;;;;;;4.20;3.10;;;;;;;21.05;44.82;101524.69;4993707;28;113580;-69
2023/07/08 04:09:24;;;;;;;5.15;2.90;;;;;;;21.05;44.92;101530.06;4988685;28;112899;-69
2023/07/08 04:11:53;;;;;;;5.50;3.13;;;;;;;21.04;44.99;101533.75;4991489;28;124415;-69
2023/07/08 04:14:20;;;;;;;6.68;2.95;;;;;;;21.03;44.88;101526.63;5011965;28;123746;-69
2023/07/08 04:16:56;;;;;;;5.15;3.10;;;;;;;21.03;45.14;101521.25;4991293;28;114313;-68
2023/07/08 04:19:26;;;;;;;4.78;3.00;;;;;;;21.02;44.91;101524.94;5011903;28;114086;-68
2023/07/08 04:21:55;;;;;;;4.15;2.70;;;;;;;21.00;45.14;101526.84;4997462;28;124525;-68
2023/07/08 04:24:22;;;;;;;4.32;3.05;;;;;;;21.01;45.13;101533.97;5008773;28;124278;-68
2023/07/08 04:27:02;;;;;;;4.25;3.15;;;;;;;21.01;45.42;101528.59;5014545;28;114091;-68
2023/07/08 04:29:29;;;;;;;5.35;2.63;;;;;;;21.02;45.30;101524.06;5015991;28;114267;-68
2023/07/08 04:31:57;;;;;;;5.78;3.00;;;;;;;21.03;45.47;101526.63;4991735;28;124388;-68
2023/07/08 04:34:25;;;;;;;6.43;2.97;;;;;;;21.05;45.53;101535.44;4994910;28;124501;-68
2023/07/08 04:36:53;;;;;;;5.53;2.97;;;;;;;21.05;45.65;101530.06;4997211;28;114312;-68
2023/07/08 04:39:20;;;;;;;5.88;2.90;;;;;;;21.08;45.77;101535.22;4996975;28;113660;-68
2023/07/08 04:41:47;;;;;;;4.25;3.28;;;;;;;21.10;45.68;101538.66;5011874;28;124387;-68
2023/07/08 04:44:18;;;;;;;4.93;2.97;;;;;;;21.13;45.64;101540.22;5008377;28;124059;-68
2023/07/08 04:46:54;;;;;;;4.97;2.97;;;;;;;21.16;45.75;101531.91;4977245;28;114426;-68
2023/07/08 04:49:23;;;;;;;4.30;2.80;;;;;;;21.17;45.79;101534.50;5009081;28;115127;-68
2023/07/08 04:51:54;;;;;;;4.57;3.03;;;;;;;21.20;45.95;101534.22;5011684;28;125607;-68
2023/07/08 04:54:21;;;;;;;4.20;2.88;;;;;;;21.26;45.92;101538.28;5007171;28;123907;-68
2023/07/08 04:56:49;;;;;;;3.78;2.70;;;;;;;21.31;46.05;101529.84;4998007;28;114741;-68
2023/07/08 04:59:19;;;;;;;3.75;2.75;;;;;;;21.38;46.25;101525.69;5011394;28;113644;-68
2023/07/08 05:01:46;;;;;;;6.18;3.00;;;;;;;21.47;46.35;101524.94;5022289;28;124307;-68
2023/07/08 05:04:18;;;;;;;8.68;2.97;;;;;;;21.55;46.14;101530.59;5008792;28;123675;-68
2023/07/08 05:06:46;;;;;;;5.47;2.92;;;;;;;21.65;46.26;101527.16;5019263;28;114277;-68
2023/07/08 05:09:14;;;;;;;5.65;2.72;;;;;;;21.72;46.22;101517.59;5027792;28;114138;-69
2023/07/08 05:11:45;;;;;;;4.07;3.05;;;;;;;21.80;46.37;101517.81;5022302;28;124453;-70
2023/07/08 05:14:13;;;;;;;5.07;2.88;;;;;;;21.86;45.96;101517.31;5019663;28;124424;-68
2023/07/08 05:16:45;;;;;;;4.00;2.60;;;;;;;21.93;46.13;101532.00;5010037;28;114231;-69
2023/07/08 05:19:14;;;;;;;5.22;2.80;;;;;;;22.01;46.03;101522.44;4993624;28;113140;-69
2023/07/08 05:21:42;;;;;;;4.97;3.10;;;;;;;22.08;46.05;101527.19;4994638;28;124097;-69
2023/07/08 05:24:11;;;;;;;4.03;2.97;;;;;;;22.16;45.96;101515.75;5018904;28;123936;-69
2023/07/08 05:26:39;;;;;;;5.13;2.95;;;;;;;22.23;45.94;101522.34;4980987;28;113330;-69
2023/07/08 05:29:06;;;;;;;6.60;3.10;;;;;;;22.30;46.08;101529.00;5001318;28;113865;-69
2023/07/08 05:31:34;;;;;;;5.90;3.20;;;;;;;22.38;46.05;101531.03;5016660;27;124297;-68
2023/07/08 05:34:04;;;;;;;5.85;3.13;;;;;;;22.46;45.99;101527.69;5015965;28;122650;-69
2023/07/08 05:36:31;;;;;;;4.50;2.92;;;;;;;22.56;46.06;101539.41;5018097;28;115045;-68
2023/07/08 05:38:58;;;;;;;5.10;2.88;;;;;;;22.65;45.98;101525.13;4995752;22;115359;-78
2023/07/08 05:41:26;;;;;;;5.13;3.15;;;;;;;22.76;46.11;101528.78;4952715;28;124994;-78
2023/07/08 05:43:53;;;;;;;4.15;3.28;;;;;;;22.85;46.01;101527.94;4937449;28;125013;-78
2023/07/08 05:46:20;;;;;;;5.60;3.00;;;;;;;22.93;46.01;101520.91;4954891;28;113677;-78
2023/07/08 05:48:48;;;;;;;5.15;2.95;;;;;;;23.04;45.99;101516.47;4954871;28;114341;-78
2023/07/08 05:51:16;;;;;;;4.97;3.20;;;;;;;23.15;45.89;101520.91;4950734;28;123991;-78
2023/07/08 05:53:43;;;;;;;4.55;3.00;;;;;;;23.22;45.65;101524.78;4937289;28;124562;-78
2023/07/08 05:56:10;;;;;;;4.47;2.90;;;;;;;23.28;45.86;101519.72;4944283;28;113577;-78
2023/07/08 05:58:37;;;;;;;4.50;2.90;;;;;;;23.36;45.83;101516.31;4961652;28;113902;-78
2023/07/08 06:01:04;;;;;;;5.63;3.15;;;;;;;23.43;45.38;101522.91;4926697;28;122252;-78
2023/07/08 06:03:32;;;;;;;5.80;3.08;;;;;;;23.48;45.47;101526.03;4924621;28;123883;-78
2023/07/08 06:06:01;;;;;;;5.70;3.17;;;;;;;23.54;45.49;101534.59;4971994;28;114227;-78
2023/07/08 06:08:28;;;;;;;5.75;3.10;;;;;;;23.59;45.35;101532.34;4959047;28;113828;-78
2023/07/08 06:10:55;;;;;;;6.85;3.45;;;;;;;23.64;45.76;101535.47;4946867;28;124337;-78
2023/07/08 06:13:22;;;;;;;6.78;3.38;;;;;;;23.70;45.74;101529.53;4929870;28;122710;-77
2023/07/08 06:15:50;;;;;;;10.35;3.20;;;;;;;23.79;45.51;101526.03;4944601;28;115265;-78
2023/07/08 06:18:17;;;;;;;4.28;3.13;;;;;;;23.89;45.48;101529.59;4953246;28;113163;-78
2023/07/08 06:20:51;;;;;;;5.50;2.78;;;;;;;24.02;45.42;101523.09;4973702;28;124085;-78
2023/07/08 06:23:18;;;;;;;6.40;2.75;;;;;;;24.17;45.12;101527.09;4937687;28;125654;-80
2023/07/08 06:25:46;;;;;;;5.22;3.10;;;;;;;24.32;44.94;101534.75;4938297;28;114744;-80
2023/07/08 06:28:13;;;;;;;4.00;3.38;;;;;;;24.45;44.65;101532.66;4971859;28;115248;-80
2023/07/08 06:30:40;;;;;;;5.65;3.50;;;;;;;24.57;44.15;101534.22;4937694;28;124810;-80
2023/07/08 06:33:07;;;;;;;6.90;3.65;;;;;;;24.68;43.91;101542.22;4971370;28;123738;-80
2023/07/08 06:35:34;;;;;;;4.60;3.38;;;;;;;24.79;44.00;101537.63;4944553;28;113485;-80
2023/07/08 06:38:01;;;;;;;7.97;3.50;;;;;;;24.93;43.93;101539.88;4934532;28;113047;-80
2023/07/08 06:40:28;;;;;;;4.72;3.30;;;;;;;25.06;44.11;101545.84;4919746;28;123794;-80
2023/07/08 06:42:56;;;;;;;6.15;3.47;;;;;;;25.21;43.96;101537.25;4966882;28;124493;-80
2023/07/08 06:45:30;;;;;;;4.70;3.50;;;;;;;25.35;43.87;101539.50;4939197;28;115947;-80
2023/07/08 06:47:57;;;;;;;8.25;3.60;;;;;;;25.50;43.88;101536.28;4937587;28;112976;-80
2023/07/08 06:50:25;;;;;;;5.72;3.53;;;;;;;25.66;43.42;101531.09;4971774;28;123992;-80
2023/07/08 06:52:52;;;;;;;4.72;3.35;;;;;;;25.82;43.59;101528.56;4972014;28;124087;-80
2023/07/08 06:55:19;;;;;;;6.75;3.45;;;;;;;26.01;42.94;101529.44;4938324;28;116307;-81
2023/07/08 06:57:46;;;;;;;7.35;3.58;;;;;;;26.15;42.95;101526.22;4952238;28;112691;-80
2023/07/08 07:00:14;;;;;;;4.85;3.63;;;;;;;26.29;42.76;101516.66;4935523;28;124323;-80
2023/07/08 07:02:41;;;;;;;7.30;3.80;;;;;;;26.43;42.39;101518.00;4932134;28;121834;-80
2023/07/08 07:05:09;;;;;;;4.63;3.28;;;;;;;26.59;42.55;101512.69;4946450;28;114181;-80
2023/07/08 07:07:36;;;;;;;6.90;3.72;;;;;;;26.75;42.11;101511.16;4972772;28;113549;-80
2023/07/08 07:10:03;;;;;;;6.78;3.15;;;;;;;26.92;41.99;101518.38;4972718;28;123905;-80
2023/07/08 07:12:31;;;;;;;5.28;3.38;;;;;;;27.08;41.39;101511.34;4949891;28;124255;-81
2023/07/08 07:14:58;;;;;;;4.88;3.30;;;;;;;27.21;41.91;101522.63;4931533;28;114153;-80
2023/07/08 07:17:26;;;;;;;6.35;3.17;;;;;;;27.34;41.54;101531.22;4939359;28;115760;-80
2023/07/08 07:19:54;;;;;;;5.85;3.80;;;;;;;27.50;40.94;101521.44;4954013;28;125230;-80
2023/07/08 07:22:22;;;;;;;6.40;3.53;;;;;;;27.65;40.47;101519.81;4947193;28;123959;-80
2023/07/08 07:24:49;;;;;;;5.35;3.55;;;;;;;27.83;40.31;101527.00;4935293;28;115640;-80
2023/07/08 07:27:16;;;;;;;5.85;3.95;;;;;;;28.00;40.07;101517.88;4935631;28;115185;-80
2023/07/08 07:29:48;;;;;;;6.25;3.42;;;;;;;28.18;39.86;101514.16;4935979;28;124970;-80
2023/07/08 07:32:17;;;;;;;6.13;3.55;;;;;;;28.34;39.31;101514.16;4935582;28;125567;-80
2023/07/08 07:34:49;;;;;;;4.78;3.30;;;;;;;28.49;39.28;101511.63;4936231;28;114331;-80
2023/07/08 07:37:18;;;;;;;4.13;3.17;;;;;;;28.64;39.17;101517.28;4934796;28;114157;-80
2023/07/08 07:39:46;;;;;;;7.10;3.50;;;;;;;28.75;39.26;101516.06;4934412;28;123991;-80
2023/07/08 07:42:15;;;;;;;7.85;3.95;;;;;;;28.87;38.35;101515.50;4946304;28;125003;-80
2023/07/08 07:44:44;;;;;;;8.02;3.90;;;;;;;28.99;38.43;101510.56;4968363;28;115075;-80
2023/07/08 07:47:11;;;;;;;5.57;3.85;;;;;;;29.09;38.23;101513.09;4971375;28;113573;-80
2023/07/08 07:49:39;;;;;;;4.38;3.20;;;;;;;29.20;38.55;101509.19;4936349;28;124992;-81
2023/07/08 07:52:07;;;;;;;8.95;4.03;;;;;;;29.34;38.08;101515.78;4962748;28;123515;-80
2023/07/08 07:54:35;;;;;;;6.63;3.67;;;;;;;29.48;37.81;101517.78;4928872;28;114661;-80
2023/07/08 07:57:03;;;;;;;7.30;4.25;;;;;;;29.60;37.45;101505.41;4922991;28;112297;-80
2023/07/08 07:59:30;;;;;;;6.82;3.78;;;;;;;29.72;37.63;101511.31;4948977;28;124100;-80
2023/07/08 08:01:57;;;;;;;8.25;4.07;;;;;;;29.85;37.40;101513.50;4935190;28;125892;-80
2023/07/08 08:04:24;;;;;;;7.78;4.50;;;;;;;29.98;37.09;101512.91;4920151;28;115496;-80
2023/07/08 08:06:51;;;;;;;9.30;4.18;;;;;;;30.12;36.76;101514.88;4935980;28;114819;-79
2023/07/08 08:09:18;;;;;;;6.70;4.15;;;;;;;30.25;36.86;101508.78;4935627;28;123820;-80
2023/07/08 08:11:46;;;;;;;5.18;3.72;;;;;;;30.36;36.92;101516.56;4935931;28;124492;-80
2023/07/08 08:14:13;;;;;;;5.88;4.00;;;;;;;30.49;36.92;101509.66;4933840;28;114452;-80
2023/07/08 08:16:41;;;;;;;6.47;4.57;;;;;;;30.60;35.86;101517.41;4949460;28;113196;-80
2023/07/08 08:19:08;;;;;;;6.25;4.45;;;;;;;30.65;35.18;101521.28;4927384;28;123520;-79
2023/07/08 08:21:35;;;;;;;6.88;4.28;;;;;;;30.68;35.66;101525.53;4956107;28;121906;-80
2023/07/08 08:24:03;;;;;;;7.75;4.28;;;;;;;30.72;34.89;101520.53;4972789;28;114659;-80
2023/07/08 08:26:30;;;;;;;7.70;5.00;;;;;;;30.76;34.52;101522.72;4954807;28;114069;-80
2023/07/08 08:28:58;;;;;;;6.20;4.60;;;;;;;30.80;34.72;101524.06;4944392;28;123901;-80
2023/07/08 08:31:25;;;;;;;6.70;4.40;;;;;;;30.86;34.93;101528.78;4936774;28;124712;-80
2023/07/08 08:33:52;;;;;;;5.68;4.13;;;;;;;30.93;34.78;101533.53;4937363;28;112788;-80
2023/07/08 08:36:23;;;;;;;8.45;4.90;;;;;;;31.02;34.60;101540.63;4970793;28;114025;-80
2023/07/08 08:38:50;;;;;;;6.68;4.15;;;;;;;31.10;35.13;101534.19;4953022;28;125272;-80
2023/07/08 08:41:20;;;;;;;7.88;4.90;;;;;;;31.22;34.53;101532.72;4969464;28;123952;-80
2023/07/08 08:43:49;;;;;;;8.48;4.45;;;;;;;31.34;34.26;101535.81;4954963;28;113969;-81
2023/07/08 08:46:28;;;;;;;8.43;4.80;;;;;;;31.38;34.02;101540.72;4937882;28;114698;-80
2023/07/08 08:48:58;;;;;;;7.63;4.30;;;;;;;31.43;34.34;101540.16;4953347;28;123582;-80
2023/07/08 08:51:30;;;;;;;6.85;4.63;;;;;;;31.46;34.93;101534.31;4951749;28;124396;-80
2023/07/08 08:53:58;;;;;;;8.30;4.40;;;;;;;31.53;34.53;101538.00;4940631;28;114957;-80
2023/07/08 08:56:40;;;;;;;7.68;4.60;;;;;;;31.64;33.97;101536.66;4960361;28;113008;-80
2023/07/08 08:59:17;;;;;;;8.07;5.05;;;;;;;31.75;33.48;101532.59;4947470;28;123611;-80
2023/07/08 09:01:47;;;;;;;8.23;4.47;;;;;;;31.83;34.09;101540.66;4967357;28;124431;-80
2023/07/08 09:04:23;;;;;;;8.75;4.65;;;;;;;31.91;33.42;101532.34;4949508;28;112503;-80
2023/07/08 09:06:53;;;;;;;8.15;5.03;;;;;;;31.96;33.37;101535.34;4941555;28;112177;-80
2023/07/08 09:09:44;;;;;;;8.70;4.95;;;;;;;32.06;33.16;101535.09;4965250;28;124691;-80
2023/07/08 09:12:22;;;;;;;9.98;4.93;;;;;;;32.15;33.04;101533.03;4965497;28;122560;-80
2023/07/08 09:14:50;;;;;;;10.13;5.00;;;;;;;32.27;33.01;101531.50;4951667;28;113601;-80
2023/07/08 09:17:31;;;;;;;7.55;4.78;;;;;;;32.40;32.98;101531.63;4950279;28;114738;-80
2023/07/08 09:20:03;;;;;;;7.30;4.80;;;;;;;32.57;32.99;101536.88;4947682;28;122831;-80
2023/07/08 09:22:43;;;;;;;8.65;5.25;;;;;;;32.68;32.24;101533.59;4944246;28;124663;-80
2023/07/08 09:25:32;;;;;;;6.65;4.82;;;;;;;32.75;32.04;101531.72;4961974;28;114597;-80
2023/07/08 09:27:59;;;;;;;8.25;5.10;;;;;;;32.80;31.83;101535.78;4946158;28;115192;-80
2023/07/08 09:30:28;;;;;;;7.05;4.30;;;;;;;32.85;32.79;101531.38;4955631;28;125156;-80
2023/07/08 09:32:57;;;;;;;8.00;4.90;;;;;;;32.98;32.16;101527.88;4961899;28;124153;-80
2023/07/08 09:35:29;;;;;;;7.15;4.90;;;;;;;33.11;31.85;101538.13;4961376;28;114064;-80
2023/07/08 09:37:56;;;;;;;10.05;5.30;;;;;;;33.22;31.59;101533.97;4943265;28;114430;-80
2023/07/08 09:40:32;;;;;;;7.22;4.60;;;;;;;33.31;31.13;101530.84;4928467;28;121803;-80
2023/07/08 09:43:25;;;;;;;8.50;5.15;;;;;;;33.45;31.40;101528.16;4943251;28;125278;-80
2023/07/08 09:45:58;;;;;;;6.70;4.65;;;;;;;33.61;32.13;101537.97;4971521;28;113925;-80
2023/07/08 09:48:28;;;;;;;10.85;5.38;;;;;;;33.72;31.37;101540.16;4957684;28;114590;-80
2023/07/08 09:50:59;;;;;;;21.02;6.93;;;;;;;33.85;32.09;101531.94;4956585;28;125186;-80
2023/07/08 09:53:27;;;;;;;8.82;4.93;;;;;;;33.98;31.49;101522.03;4964632;28;124327;-80
2023/07/08 09:55:58;;;;;;;8.85;5.03;;;;;;;34.11;30.66;101527.56;4962318;28;114129;-80
2023/07/08 09:58:31;;;;;;;10.95;5.90;;;;;;;34.11;30.27;101527.56;4979883;28;114021;-81
2023/07/08 10:01:08;;;;;;;9.95;5.60;;;;;;;34.06;30.36;101524.59;4962936;28;124452;-81
2023/07/08 10:03:36;;;;;;;8.85;5.60;;;;;;;34.00;30.27;101520.78;4960416;28;124689;-80
2023/07/08 10:06:17;;;;;;;8.68;5.57;;;;;;;33.98;30.44;101519.28;4959905;28;113492;-80
2023/07/08 10:08:45;;;;;;;8.63;5.63;;;;;;;33.97;30.08;101520.34;4977692;28;114060;-80
2023/07/08 10:11:51;;;;;;;7.22;5.30;;;;;;;33.98;30.57;101525.63;4967684;28;123680;-81
2023/07/08 10:14:46;;;;;;;8.77;5.65;;;;;;;34.05;30.78;101528.41;4949877;28;124514;-80
2023/07/08 10:17:16;;;;;;;8.60;5.55;;;;;;;34.10;30.33;101525.88;4961141;28;115334;-80
2023/07/08 10:19:43;;;;;;;7.47;5.10;;;;;;;34.13;30.37;101525.44;4971077;28;114163;-80
2023/07/08 10:22:41;;;;;;;7.78;5.18;;;;;;;34.18;30.23;101511.94;4940690;28;122166;-80
2023/07/08 10:25:46;;;;;;;10.27;5.05;;;;;;;34.20;30.37;101504.34;4973159;28;123446;-81
2023/07/08 10:28:39;;;;;;;8.32;5.22;;;;;;;34.22;30.42;101510.47;4986704;28;114623;-80
2023/07/08 10:31:35;;;;;;;10.98;5.50;;;;;;;34.26;30.51;101508.97;4966865;28;113362;-81
2023/07/08 10:34:24;;;;;;;9.60;5.75;;;;;;;34.36;30.78;101507.72;4967679;28;124740;-80
2023/07/08 10:36:55;;;;;;;6.82;5.38;;;;;;;34.42;30.19;101512.41;4949900;28;123295;-80
2023/07/08 10:39:55;;;;;;;9.25;5.30;;;;;;;34.48;30.74;101517.06;4957696;28;113183;-80
2023/07/08 10:42:50;;;;;;;8.07;5.05;;;;;;;34.55;30.12;101509.66;4976780;28;114266;-81
2023/07/08 10:45:31;;;;;;;7.93;5.00;;;;;;;34.64;30.18;101504.75;4960948;28;127551;-80
2023/07/08 10:48:17;;;;;;;9.05;4.70;;;;;;;34.75;29.54;101508.81;4959070;28;124293;-81
2023/07/08 10:51:04;;;;;;;7.10;4.88;;;;;;;34.83;30.30;101508.56;4960197;28;114624;-81
2023/07/08 10:53:34;;;;;;;9.63;5.30;;;;;;;34.97;29.53;101515.75;4946195;28;112270;-81
2023/07/08 10:56:20;;;;;;;7.80;5.40;;;;;;;35.09;29.58;101513.19;4942407;28;123268;-81
2023/07/08 10:58:56;;;;;;;7.85;4.95;;;;;;;35.18;30.02;101511.09;4970105;28;125123;-81
2023/07/08 11:01:38;;;;;;;11.75;5.53;;;;;;;35.32;29.49;101501.72;4946608;28;113136;-81
2023/07/08 11:04:12;;;;;;;6.35;4.68;;;;;;;35.42;28.81;101502.09;4944207;28;115686;-81
2023/07/08 11:06:55;;;;;;;6.53;5.05;;;;;;;35.50;29.03;101509.25;4964000;28;124827;-81
2023/07/08 11:09:29;;;;;;;9.45;5.28;;;;;;;35.58;29.30;101510.91;4975962;28;124858;-81
2023/07/08 11:12:04;;;;;;;8.13;6.28;;;;;;;35.67;28.52;101520.63;4971401;28;114173;-81
2023/07/08 11:15:15;;;;;;;7.95;4.78;;;;;;;35.78;28.83;101517.19;4955111;28;112858;-81
2023/07/08 11:17:54;;;;;;;9.15;5.30;;;;;;;35.85;27.92;101507.00;4908675;28;124048;-81
2023/07/08 11:20:27;;;;;;;9.32;5.07;;;;;;;35.92;27.89;101517.13;4949393;28;123478;-81
2023/07/08 11:23:03;;;;;;;10.23;5.20;;;;;;;35.97;27.69;101500.78;4936502;28;114513;-81
2023/07/08 11:25:31;;;;;;;12.07;5.13;;;;;;;36.03;28.33;101508.13;4945599;28;113364;-81
2023/07/08 11:28:04;;;;;;;9.35;4.95;;;;;;;36.08;27.51;101505.56;4931149;28;125480;-78
2023/07/08 11:30:34;;;;;;;7.47;4.93;;;;;;;36.13;26.96;101511.28;4944862;28;122759;-78
2023/07/08 11:33:05;;;;;;;7.85;4.93;;;;;;;36.22;28.35;101501.69;4946586;28;115103;-78
2023/07/08 11:35:40;;;;;;;6.90;4.97;;;;;;;36.36;26.97;101507.09;4944435;28;112890;-79